sensor_id;sensor_type;location;lat;lon;timestamp;temperature;humidity
15115;DHT22;7658;51.456;7.622;2022-12-18T00:01:29;-8.80;99.90
15115;DHT22;7658;51.456;7.622;2022-12-18T00:03:57;-8.80;99.90
15115;DHT22;7658;51.456;7.622;2022-12-18T00:06:24;-8.80;99.90
15115;DHT22;7658;51.456;7.622;2022-12-18T00:08:50;-8.80;99.90
15115;DHT22;7658;51.456;7.622;2022-12-18T00:11:19;-8.90;99.90
15115;DHT22;7658;51.456;7.622;2022-12-18T00:13:45;-8.90;99.90
15115;DHT22;7658;51.456;7.622;2022-12-18T00:16:13;-9.00;99.90
15115;DHT22;7658;51.456;7.622;2022-12-18T00:18:40;-9.00;99.90
15115;DHT22;7658;51.456;7.622;2022-12-18T00:21:08;-9.00;99.90
15115;DHT22;7658;51.456;7.622;2022-12-18T00:23:36;-9.10;99.90
15115;DHT22;7658;51.456;7.622;2022-12-18T00:26:05;-9.00;99.90
15115;DHT22;7658;51.456;7.622;2022-12-18T00:28:31;-9.10;99.90
15115;DHT22;7658;51.456;7.622;2022-12-18T00:33:30;-9.10;99.90
15115;DHT22;7658;51.456;7.622;2022-12-18T00:36:04;-9.20;99.90
15115;DHT22;7658;51.456;7.622;2022-12-18T00:38:30;-9.20;99.90
15115;DHT22;7658;51.456;7.622;2022-12-18T00:40:57;-9.10;99.90
15115;DHT22;7658;51.456;7.622;2022-12-18T00:43:22;-9.10;99.90
15115;DHT22;7658;51.456;7.622;2022-12-18T00:45:48;-9.10;99.90
15115;DHT22;7658;51.456;7.622;2022-12-18T00:48:14;-9.10;99.90
15115;DHT22;7658;51.456;7.622;2022-12-18T00:50:40;-9.10;99.90
15115;DHT22;7658;51.456;7.622;2022-12-18T00:53:05;-9.20;99.90
15115;DHT22;7658;51.456;7.622;2022-12-18T00:55:31;-9.20;99.90
15115;DHT22;7658;51.456;7.622;2022-12-18T00:57:57;-9.20;99.90
15115;DHT22;7658;51.456;7.622;2022-12-18T01:00:23;-9.20;99.90
15115;DHT22;7658;51.456;7.622;2022-12-18T01:02:49;-9.20;99.90
15115;DHT22;7658;51.456;7.622;2022-12-18T01:05:15;-9.20;99.90
15115;DHT22;7658;51.456;7.622;2022-12-18T01:07:41;-9.10;99.90
15115;DHT22;7658;51.456;7.622;2022-12-18T01:10:08;-9.10;99.90
15115;DHT22;7658;51.456;7.622;2022-12-18T01:12:34;-9.10;99.90
15115;DHT22;7658;51.456;7.622;2022-12-18T01:15:00;-9.10;99.90
15115;DHT22;7658;51.456;7.622;2022-12-18T01:17:26;-9.10;99.90
15115;DHT22;7658;51.456;7.622;2022-12-18T01:19:52;-9.10;99.90
15115;DHT22;7658;51.456;7.622;2022-12-18T01:22:18;-9.10;99.90
15115;DHT22;7658;51.456;7.622;2022-12-18T01:24:43;-9.00;99.90
15115;DHT22;7658;51.456;7.622;2022-12-18T01:27:09;-9.00;99.90
15115;DHT22;7658;51.456;7.622;2022-12-18T01:29:35;-9.00;99.90
15115;DHT22;7658;51.456;7.622;2022-12-18T01:32:00;-9.00;99.90
15115;DHT22;7658;51.456;7.622;2022-12-18T01:34:26;-9.10;99.90
15115;DHT22;7658;51.456;7.622;2022-12-18T01:36:52;-9.20;99.90
15115;DHT22;7658;51.456;7.622;2022-12-18T01:39:18;-9.20;99.90
15115;DHT22;7658;51.456;7.622;2022-12-18T01:41:44;-9.10;99.90
15115;DHT22;7658;51.456;7.622;2022-12-18T01:47:23;-9.10;99.90
15115;DHT22;7658;51.456;7.622;2022-12-18T01:49:49;-9.20;99.90
15115;DHT22;7658;51.456;7.622;2022-12-18T01:52:17;-9.20;99.90
15115;DHT22;7658;51.456;7.622;2022-12-18T01:54:44;-9.10;99.90
15115;DHT22;7658;51.456;7.622;2022-12-18T01:57:11;-9.20;99.90
15115;DHT22;7658;51.456;7.622;2022-12-18T01:59:37;-9.20;99.90
15115;DHT22;7658;51.456;7.622;2022-12-18T02:02:04;-9.20;99.90
15115;DHT22;7658;51.456;7.622;2022-12-18T02:04:30;-9.10;99.90
15115;DHT22;7658;51.456;7.622;2022-12-18T02:07:20;-9.10;99.90
15115;DHT22;7658;51.456;7.622;2022-12-18T02:12:49;-9.10;99.90
15115;DHT22;7658;51.456;7.622;2022-12-18T02:15:26;-9.10;99.90
15115;DHT22;7658;51.456;7.622;2022-12-18T02:17:55;-9.10;99.90
15115;DHT22;7658;51.456;7.622;2022-12-18T02:20:47;-9.20;99.90
15115;DHT22;7658;51.456;7.622;2022-12-18T02:28:55;-9.30;99.90
15115;DHT22;7658;51.456;7.622;2022-12-18T02:31:25;-9.30;99.90
15115;DHT22;7658;51.456;7.622;2022-12-18T02:33:54;-9.30;99.90
15115;DHT22;7658;51.456;7.622;2022-12-18T02:36:22;-9.30;99.90
15115;DHT22;7658;51.456;7.622;2022-12-18T02:38:50;-9.30;99.90
15115;DHT22;7658;51.456;7.622;2022-12-18T02:41:16;-9.30;99.90
15115;DHT22;7658;51.456;7.622;2022-12-18T02:43:47;-9.30;99.90
15115;DHT22;7658;51.456;7.622;2022-12-18T02:51:54;-9.40;99.90
15115;DHT22;7658;51.456;7.622;2022-12-18T02:57:49;-9.40;99.90
15115;DHT22;7658;51.456;7.622;2022-12-18T03:00:43;-9.50;99.90
15115;DHT22;7658;51.456;7.622;2022-12-18T03:03:16;-9.50;99.90
15115;DHT22;7658;51.456;7.622;2022-12-18T03:05:52;-9.60;99.90
15115;DHT22;7658;51.456;7.622;2022-12-18T03:08:27;-9.60;99.90
15115;DHT22;7658;51.456;7.622;2022-12-18T03:11:11;-9.60;99.90
15115;DHT22;7658;51.456;7.622;2022-12-18T03:13:50;-9.60;99.90
15115;DHT22;7658;51.456;7.622;2022-12-18T03:16:27;-9.60;99.90
15115;DHT22;7658;51.456;7.622;2022-12-18T03:19:21;-9.60;99.90
15115;DHT22;7658;51.456;7.622;2022-12-18T03:21:49;-9.50;99.90
15115;DHT22;7658;51.456;7.622;2022-12-18T03:24:18;-9.50;99.90
15115;DHT22;7658;51.456;7.622;2022-12-18T03:26:47;-9.60;99.90
15115;DHT22;7658;51.456;7.622;2022-12-18T03:29:18;-9.60;99.90
15115;DHT22;7658;51.456;7.622;2022-12-18T03:31:51;-9.60;99.90
15115;DHT22;7658;51.456;7.622;2022-12-18T03:34:30;-9.60;99.90
15115;DHT22;7658;51.456;7.622;2022-12-18T03:36:57;-9.60;99.90
15115;DHT22;7658;51.456;7.622;2022-12-18T03:39:23;-9.60;99.90
15115;DHT22;7658;51.456;7.622;2022-12-18T03:41:58;-9.60;99.90
15115;DHT22;7658;51.456;7.622;2022-12-18T03:47:20;-9.60;99.90
15115;DHT22;7658;51.456;7.622;2022-12-18T03:50:12;-9.60;99.90
15115;DHT22;7658;51.456;7.622;2022-12-18T03:53:00;-9.50;99.90
15115;DHT22;7658;51.456;7.622;2022-12-18T03:55:29;-9.50;99.90
15115;DHT22;7658;51.456;7.622;2022-12-18T03:57:58;-9.50;99.90
15115;DHT22;7658;51.456;7.622;2022-12-18T04:00:25;-9.50;99.90
15115;DHT22;7658;51.456;7.622;2022-12-18T04:02:53;-9.50;99.90
15115;DHT22;7658;51.456;7.622;2022-12-18T04:05:20;-9.50;99.90
15115;DHT22;7658;51.456;7.622;2022-12-18T04:07:48;-9.50;99.90
15115;DHT22;7658;51.456;7.622;2022-12-18T04:10:16;-9.50;99.90
15115;DHT22;7658;51.456;7.622;2022-12-18T04:12:42;-9.60;99.90
15115;DHT22;7658;51.456;7.622;2022-12-18T04:15:09;-9.60;99.90
15115;DHT22;7658;51.456;7.622;2022-12-18T04:17:35;-9.60;99.90
15115;DHT22;7658;51.456;7.622;2022-12-18T04:20:01;-9.60;99.90
15115;DHT22;7658;51.456;7.622;2022-12-18T04:22:27;-9.60;99.90
15115;DHT22;7658;51.456;7.622;2022-12-18T04:24:53;-9.60;99.90
15115;DHT22;7658;51.456;7.622;2022-12-18T04:27:18;-9.70;99.90
15115;DHT22;7658;51.456;7.622;2022-12-18T04:29:44;-9.70;99.90
15115;DHT22;7658;51.456;7.622;2022-12-18T04:32:10;-9.70;99.90
15115;DHT22;7658;51.456;7.622;2022-12-18T04:34:36;-9.70;99.90
15115;DHT22;7658;51.456;7.622;2022-12-18T04:37:02;-9.70;99.90
15115;DHT22;7658;51.456;7.622;2022-12-18T04:39:27;-9.70;99.90
15115;DHT22;7658;51.456;7.622;2022-12-18T04:41:54;-9.70;99.90
15115;DHT22;7658;51.456;7.622;2022-12-18T04:44:20;-9.70;99.90
15115;DHT22;7658;51.456;7.622;2022-12-18T04:46:46;-9.70;99.90
15115;DHT22;7658;51.456;7.622;2022-12-18T04:49:12;-9.70;99.90
15115;DHT22;7658;51.456;7.622;2022-12-18T04:51:38;-9.70;99.90
15115;DHT22;7658;51.456;7.622;2022-12-18T04:54:04;-9.70;99.90
15115;DHT22;7658;51.456;7.622;2022-12-18T04:56:31;-9.70;99.90
15115;DHT22;7658;51.456;7.622;2022-12-18T04:58:57;-9.70;99.90
15115;DHT22;7658;51.456;7.622;2022-12-18T05:01:23;-9.70;99.90
15115;DHT22;7658;51.456;7.622;2022-12-18T05:03:50;-9.70;99.90
15115;DHT22;7658;51.456;7.622;2022-12-18T05:06:16;-9.70;99.90
15115;DHT22;7658;51.456;7.622;2022-12-18T05:08:42;-9.60;99.90
15115;DHT22;7658;51.456;7.622;2022-12-18T05:11:10;-9.70;99.90
15115;DHT22;7658;51.456;7.622;2022-12-18T05:13:36;-9.60;99.90
15115;DHT22;7658;51.456;7.622;2022-12-18T05:16:04;-9.60;99.90
15115;DHT22;7658;51.456;7.622;2022-12-18T05:18:30;-9.60;99.90
15115;DHT22;7658;51.456;7.622;2022-12-18T05:20:56;-9.60;99.90
15115;DHT22;7658;51.456;7.622;2022-12-18T05:23:23;-9.60;99.90
15115;DHT22;7658;51.456;7.622;2022-12-18T05:25:58;-9.60;99.90
15115;DHT22;7658;51.456;7.622;2022-12-18T05:28:25;-9.60;99.90
15115;DHT22;7658;51.456;7.622;2022-12-18T05:30:55;-9.60;99.90
15115;DHT22;7658;51.456;7.622;2022-12-18T05:33:22;-9.60;99.90
15115;DHT22;7658;51.456;7.622;2022-12-18T05:35:56;-9.60;99.90
15115;DHT22;7658;51.456;7.622;2022-12-18T05:38:23;-9.50;99.90
15115;DHT22;7658;51.456;7.622;2022-12-18T05:40:50;-9.50;99.90
15115;DHT22;7658;51.456;7.622;2022-12-18T05:43:16;-9.60;99.90
15115;DHT22;7658;51.456;7.622;2022-12-18T05:45:43;-9.60;99.90
15115;DHT22;7658;51.456;7.622;2022-12-18T05:48:09;-9.60;99.90
15115;DHT22;7658;51.456;7.622;2022-12-18T05:50:39;-9.60;99.90
15115;DHT22;7658;51.456;7.622;2022-12-18T05:53:06;-9.60;99.90
15115;DHT22;7658;51.456;7.622;2022-12-18T05:55:35;-9.70;99.90
15115;DHT22;7658;51.456;7.622;2022-12-18T05:58:03;-9.70;99.90
15115;DHT22;7658;51.456;7.622;2022-12-18T06:00:29;-9.70;99.90
15115;DHT22;7658;51.456;7.622;2022-12-18T06:02:55;-9.70;99.90
15115;DHT22;7658;51.456;7.622;2022-12-18T06:05:21;-9.70;99.90
15115;DHT22;7658;51.456;7.622;2022-12-18T06:07:47;-9.70;99.90
15115;DHT22;7658;51.456;7.622;2022-12-18T06:10:13;-9.70;99.90
15115;DHT22;7658;51.456;7.622;2022-12-18T06:12:38;-9.80;99.90
15115;DHT22;7658;51.456;7.622;2022-12-18T06:15:04;-9.80;99.90
15115;DHT22;7658;51.456;7.622;2022-12-18T06:17:31;-9.70;99.90
15115;DHT22;7658;51.456;7.622;2022-12-18T06:19:57;-9.70;99.90
15115;DHT22;7658;51.456;7.622;2022-12-18T06:22:23;-9.70;99.90
15115;DHT22;7658;51.456;7.622;2022-12-18T06:24:49;-9.70;99.90
15115;DHT22;7658;51.456;7.622;2022-12-18T06:27:14;-9.70;99.90
15115;DHT22;7658;51.456;7.622;2022-12-18T06:29:40;-9.70;99.90
15115;DHT22;7658;51.456;7.622;2022-12-18T06:32:06;-9.60;99.90
15115;DHT22;7658;51.456;7.622;2022-12-18T06:34:32;-9.70;99.90
15115;DHT22;7658;51.456;7.622;2022-12-18T06:36:58;-9.70;99.90
15115;DHT22;7658;51.456;7.622;2022-12-18T06:39:26;-9.70;99.90
15115;DHT22;7658;51.456;7.622;2022-12-18T06:41:52;-9.70;99.90
15115;DHT22;7658;51.456;7.622;2022-12-18T06:44:18;-9.70;99.90
15115;DHT22;7658;51.456;7.622;2022-12-18T06:46:44;-9.70;99.90
15115;DHT22;7658;51.456;7.622;2022-12-18T06:49:10;-9.70;99.90
15115;DHT22;7658;51.456;7.622;2022-12-18T06:51:35;-9.60;99.90
15115;DHT22;7658;51.456;7.622;2022-12-18T06:54:01;-9.60;99.90
15115;DHT22;7658;51.456;7.622;2022-12-18T06:56:27;-9.50;99.90
15115;DHT22;7658;51.456;7.622;2022-12-18T06:58:53;-9.60;99.90
15115;DHT22;7658;51.456;7.622;2022-12-18T07:01:20;-9.60;99.90
15115;DHT22;7658;51.456;7.622;2022-12-18T07:03:47;-9.60;99.90
15115;DHT22;7658;51.456;7.622;2022-12-18T07:06:18;-9.60;99.90
15115;DHT22;7658;51.456;7.622;2022-12-18T07:08:45;-9.50;99.90
15115;DHT22;7658;51.456;7.622;2022-12-18T07:11:12;-9.50;99.90
15115;DHT22;7658;51.456;7.622;2022-12-18T07:13:38;-9.50;99.90
15115;DHT22;7658;51.456;7.622;2022-12-18T07:16:16;-9.50;99.90
15115;DHT22;7658;51.456;7.622;2022-12-18T07:18:42;-9.50;99.90
15115;DHT22;7658;51.456;7.622;2022-12-18T07:21:13;-9.50;99.90
15115;DHT22;7658;51.456;7.622;2022-12-18T07:23:40;-9.40;99.90
15115;DHT22;7658;51.456;7.622;2022-12-18T07:26:13;-9.40;99.90
15115;DHT22;7658;51.456;7.622;2022-12-18T07:28:40;-9.30;99.90
15115;DHT22;7658;51.456;7.622;2022-12-18T07:31:08;-9.30;99.90
15115;DHT22;7658;51.456;7.622;2022-12-18T07:33:34;-9.40;99.90
15115;DHT22;7658;51.456;7.622;2022-12-18T07:36:04;-9.40;99.90
15115;DHT22;7658;51.456;7.622;2022-12-18T07:38:31;-9.40;99.90
15115;DHT22;7658;51.456;7.622;2022-12-18T07:41:02;-9.40;99.90
15115;DHT22;7658;51.456;7.622;2022-12-18T07:43:28;-9.40;99.90
15115;DHT22;7658;51.456;7.622;2022-12-18T07:45:53;-9.30;99.90
15115;DHT22;7658;51.456;7.622;2022-12-18T07:48:19;-9.30;99.90
15115;DHT22;7658;51.456;7.622;2022-12-18T07:50:45;-9.20;99.90
15115;DHT22;7658;51.456;7.622;2022-12-18T07:53:11;-9.20;99.90
15115;DHT22;7658;51.456;7.622;2022-12-18T07:55:37;-9.10;99.90
15115;DHT22;7658;51.456;7.622;2022-12-18T07:58:03;-9.10;99.90
15115;DHT22;7658;51.456;7.622;2022-12-18T08:00:30;-9.00;99.90
15115;DHT22;7658;51.456;7.622;2022-12-18T08:02:56;-9.00;99.90
15115;DHT22;7658;51.456;7.622;2022-12-18T08:05:23;-8.90;99.90
15115;DHT22;7658;51.456;7.622;2022-12-18T08:07:48;-8.90;99.90
15115;DHT22;7658;51.456;7.622;2022-12-18T08:10:14;-8.90;99.90
15115;DHT22;7658;51.456;7.622;2022-12-18T08:12:40;-8.80;99.90
15115;DHT22;7658;51.456;7.622;2022-12-18T08:15:06;-8.70;99.90
15115;DHT22;7658;51.456;7.622;2022-12-18T08:17:32;-8.60;99.90
15115;DHT22;7658;51.456;7.622;2022-12-18T08:19:58;-8.50;99.90
15115;DHT22;7658;51.456;7.622;2022-12-18T08:22:24;-8.40;99.90
15115;DHT22;7658;51.456;7.622;2022-12-18T08:24:50;-8.20;99.90
15115;DHT22;7658;51.456;7.622;2022-12-18T08:27:15;-8.20;99.90
15115;DHT22;7658;51.456;7.622;2022-12-18T08:29:41;-8.00;99.90
15115;DHT22;7658;51.456;7.622;2022-12-18T08:32:07;-7.90;99.90
15115;DHT22;7658;51.456;7.622;2022-12-18T08:34:33;-7.80;99.90
15115;DHT22;7658;51.456;7.622;2022-12-18T08:36:59;-7.70;99.90
15115;DHT22;7658;51.456;7.622;2022-12-18T08:39:24;-7.50;99.90
15115;DHT22;7658;51.456;7.622;2022-12-18T08:41:50;-7.40;99.90
15115;DHT22;7658;51.456;7.622;2022-12-18T08:44:34;-7.30;99.90
15115;DHT22;7658;51.456;7.622;2022-12-18T08:47:03;-7.10;99.90
15115;DHT22;7658;51.456;7.622;2022-12-18T08:49:29;-6.90;99.90
15115;DHT22;7658;51.456;7.622;2022-12-18T08:51:55;-6.80;99.90
15115;DHT22;7658;51.456;7.622;2022-12-18T08:54:23;-6.60;99.90
15115;DHT22;7658;51.456;7.622;2022-12-18T08:56:49;-6.40;99.90
15115;DHT22;7658;51.456;7.622;2022-12-18T08:59:16;-6.20;99.90
15115;DHT22;7658;51.456;7.622;2022-12-18T09:01:42;-6.10;99.90
15115;DHT22;7658;51.456;7.622;2022-12-18T09:04:09;-5.90;99.90
15115;DHT22;7658;51.456;7.622;2022-12-18T09:06:35;-5.80;99.90
15115;DHT22;7658;51.456;7.622;2022-12-18T09:09:02;-5.70;99.90
15115;DHT22;7658;51.456;7.622;2022-12-18T09:11:28;-5.60;99.90
15115;DHT22;7658;51.456;7.622;2022-12-18T09:13:55;-5.30;99.90
15115;DHT22;7658;51.456;7.622;2022-12-18T09:16:21;-5.20;99.90
15115;DHT22;7658;51.456;7.622;2022-12-18T09:18:47;-5.00;99.90
15115;DHT22;7658;51.456;7.622;2022-12-18T09:21:16;-4.90;99.90
15115;DHT22;7658;51.456;7.622;2022-12-18T09:23:42;-4.70;99.90
15115;DHT22;7658;51.456;7.622;2022-12-18T09:26:08;-4.60;99.90
15115;DHT22;7658;51.456;7.622;2022-12-18T09:28:34;-4.40;99.90
15115;DHT22;7658;51.456;7.622;2022-12-18T09:31:04;-4.30;99.90
15115;DHT22;7658;51.456;7.622;2022-12-18T09:33:31;-4.10;99.90
15115;DHT22;7658;51.456;7.622;2022-12-18T09:35:57;-3.80;99.90
15115;DHT22;7658;51.456;7.622;2022-12-18T09:38:23;-3.70;99.90
15115;DHT22;7658;51.456;7.622;2022-12-18T09:40:54;-3.50;99.90
15115;DHT22;7658;51.456;7.622;2022-12-18T09:43:28;-3.40;99.90
15115;DHT22;7658;51.456;7.622;2022-12-18T09:46:05;-3.30;99.90
15115;DHT22;7658;51.456;7.622;2022-12-18T09:48:35;-3.20;99.90
15115;DHT22;7658;51.456;7.622;2022-12-18T09:51:20;-3.00;99.90
15115;DHT22;7658;51.456;7.622;2022-12-18T09:53:52;-2.70;99.90
15115;DHT22;7658;51.456;7.622;2022-12-18T09:56:20;-2.40;99.90
15115;DHT22;7658;51.456;7.622;2022-12-18T09:59:00;-2.30;99.90
15115;DHT22;7658;51.456;7.622;2022-12-18T10:01:28;-2.10;99.90
15115;DHT22;7658;51.456;7.622;2022-12-18T10:03:54;-2.00;99.90
15115;DHT22;7658;51.456;7.622;2022-12-18T10:06:35;-1.90;99.90
15115;DHT22;7658;51.456;7.622;2022-12-18T10:11:58;-1.70;99.90
15115;DHT22;7658;51.456;7.622;2022-12-18T10:17:28;-1.40;99.90
15115;DHT22;7658;51.456;7.622;2022-12-18T10:20:03;-1.30;99.90
15115;DHT22;7658;51.456;7.622;2022-12-18T10:25:20;-1.00;99.90
15115;DHT22;7658;51.456;7.622;2022-12-18T10:27:48;-0.90;99.90
15115;DHT22;7658;51.456;7.622;2022-12-18T10:30:21;-0.80;99.90
15115;DHT22;7658;51.456;7.622;2022-12-18T10:32:47;-0.70;99.90
15115;DHT22;7658;51.456;7.622;2022-12-18T10:35:24;-0.60;99.90
15115;DHT22;7658;51.456;7.622;2022-12-18T10:38:06;-0.50;99.90
15115;DHT22;7658;51.456;7.622;2022-12-18T10:44:17;-0.30;99.90
15115;DHT22;7658;51.456;7.622;2022-12-18T10:46:49;-0.20;99.90
15115;DHT22;7658;51.456;7.622;2022-12-18T10:49:26;-0.20;99.90
15115;DHT22;7658;51.456;7.622;2022-12-18T10:52:14;-0.20;99.90
15115;DHT22;7658;51.456;7.622;2022-12-18T10:54:47;-0.20;99.90
15115;DHT22;7658;51.456;7.622;2022-12-18T10:57:15;-0.10;99.90
15115;DHT22;7658;51.456;7.622;2022-12-18T10:59:56;-0.10;99.90
15115;DHT22;7658;51.456;7.622;2022-12-18T11:04:54;-0.10;99.90
15115;DHT22;7658;51.456;7.622;2022-12-18T11:07:19;0.00;99.90
15115;DHT22;7658;51.456;7.622;2022-12-18T11:10:00;0.00;99.90
15115;DHT22;7658;51.456;7.622;2022-12-18T11:12:28;0.00;99.90
15115;DHT22;7658;51.456;7.622;2022-12-18T11:14:55;0.00;99.90
15115;DHT22;7658;51.456;7.622;2022-12-18T11:17:31;0.10;99.90
15115;DHT22;7658;51.456;7.622;2022-12-18T11:20:34;0.10;99.90
15115;DHT22;7658;51.456;7.622;2022-12-18T11:23:11;0.20;99.90
15115;DHT22;7658;51.456;7.622;2022-12-18T11:25:38;0.20;99.90
15115;DHT22;7658;51.456;7.622;2022-12-18T11:28:37;0.20;99.90
15115;DHT22;7658;51.456;7.622;2022-12-18T11:31:25;0.20;99.90
15115;DHT22;7658;51.456;7.622;2022-12-18T11:37:01;0.30;99.90
15115;DHT22;7658;51.456;7.622;2022-12-18T11:42:30;0.40;99.90
15115;DHT22;7658;51.456;7.622;2022-12-18T11:48:01;0.40;99.90
15115;DHT22;7658;51.456;7.622;2022-12-18T11:53:02;0.30;99.90
15115;DHT22;7658;51.456;7.622;2022-12-18T11:55:41;0.30;99.90
15115;DHT22;7658;51.456;7.622;2022-12-18T12:09:33;0.30;99.90
15115;DHT22;7658;51.456;7.622;2022-12-18T12:12:15;0.30;99.90
15115;DHT22;7658;51.456;7.622;2022-12-18T12:14:56;0.40;99.90
15115;DHT22;7658;51.456;7.622;2022-12-18T12:25:37;0.50;99.90
15115;DHT22;7658;51.456;7.622;2022-12-18T12:28:19;0.50;99.90
15115;DHT22;7658;51.456;7.622;2022-12-18T12:36:22;0.70;99.90
15115;DHT22;7658;51.456;7.622;2022-12-18T12:39:03;0.70;99.90
15115;DHT22;7658;51.456;7.622;2022-12-18T12:41:32;0.70;99.90
15115;DHT22;7658;51.456;7.622;2022-12-18T12:44:25;0.70;99.90
15115;DHT22;7658;51.456;7.622;2022-12-18T12:46:57;0.80;99.90
15115;DHT22;7658;51.456;7.622;2022-12-18T12:49:27;0.70;99.90
15115;DHT22;7658;51.456;7.622;2022-12-18T12:52:05;0.70;99.90
15115;DHT22;7658;51.456;7.622;2022-12-18T12:54:32;0.70;99.90
15115;DHT22;7658;51.456;7.622;2022-12-18T12:57:34;0.60;99.90
15115;DHT22;7658;51.456;7.622;2022-12-18T13:00:11;0.60;99.90
15115;DHT22;7658;51.456;7.622;2022-12-18T13:08:30;0.60;99.90
15115;DHT22;7658;51.456;7.622;2022-12-18T13:10:58;0.60;99.90
15115;DHT22;7658;51.456;7.622;2022-12-18T13:13:50;0.50;99.90
15115;DHT22;7658;51.456;7.622;2022-12-18T13:16:21;0.50;99.90
15115;DHT22;7658;51.456;7.622;2022-12-18T13:18:55;0.60;99.90
15115;DHT22;7658;51.456;7.622;2022-12-18T13:21:30;0.50;99.90
15115;DHT22;7658;51.456;7.622;2022-12-18T13:23:57;0.60;99.90
15115;DHT22;7658;51.456;7.622;2022-12-18T13:26:39;0.60;99.90
15115;DHT22;7658;51.456;7.622;2022-12-18T13:29:05;0.60;99.90
15115;DHT22;7658;51.456;7.622;2022-12-18T13:36:43;0.50;99.90
15115;DHT22;7658;51.456;7.622;2022-12-18T13:41:49;0.50;99.90
15115;DHT22;7658;51.456;7.622;2022-12-18T13:44:32;0.50;99.90
15115;DHT22;7658;51.456;7.622;2022-12-18T13:46:59;0.50;99.90
15115;DHT22;7658;51.456;7.622;2022-12-18T13:49:43;0.40;99.90
15115;DHT22;7658;51.456;7.622;2022-12-18T13:52:19;0.40;99.90
15115;DHT22;7658;51.456;7.622;2022-12-18T13:54:52;0.40;99.90
15115;DHT22;7658;51.456;7.622;2022-12-18T13:59:52;0.30;99.90
15115;DHT22;7658;51.456;7.622;2022-12-18T14:02:22;0.30;99.90
15115;DHT22;7658;51.456;7.622;2022-12-18T14:04:49;0.30;99.90
15115;DHT22;7658;51.456;7.622;2022-12-18T14:07:26;0.30;99.90
15115;DHT22;7658;51.456;7.622;2022-12-18T14:09:58;0.40;99.90
15115;DHT22;7658;51.456;7.622;2022-12-18T14:12:32;0.50;99.90
15115;DHT22;7658;51.456;7.622;2022-12-18T14:18:12;0.80;99.90
15115;DHT22;7658;51.456;7.622;2022-12-18T14:20:47;1.30;99.90
15115;DHT22;7658;51.456;7.622;2022-12-18T14:26:02;1.70;99.90
15115;DHT22;7658;51.456;7.622;2022-12-18T14:28:28;1.80;99.90
15115;DHT22;7658;51.456;7.622;2022-12-18T14:30:54;1.90;99.90
15115;DHT22;7658;51.456;7.622;2022-12-18T14:33:22;1.80;99.90
15115;DHT22;7658;51.456;7.622;2022-12-18T14:35:58;1.80;99.90
15115;DHT22;7658;51.456;7.622;2022-12-18T14:38:39;2.00;99.90
15115;DHT22;7658;51.456;7.622;2022-12-18T14:41:14;1.90;99.90
15115;DHT22;7658;51.456;7.622;2022-12-18T14:43:45;1.70;99.90
15115;DHT22;7658;51.456;7.622;2022-12-18T14:46:36;1.50;99.90
15115;DHT22;7658;51.456;7.622;2022-12-18T14:49:29;1.60;99.90
15115;DHT22;7658;51.456;7.622;2022-12-18T14:52:03;1.50;99.90
15115;DHT22;7658;51.456;7.622;2022-12-18T14:54:31;1.50;99.90
15115;DHT22;7658;51.456;7.622;2022-12-18T14:57:57;1.40;99.90
15115;DHT22;7658;51.456;7.622;2022-12-18T14:59:52;1.30;99.90
15115;DHT22;7658;51.456;7.622;2022-12-18T15:02:28;1.30;99.90
15115;DHT22;7658;51.456;7.622;2022-12-18T15:07:42;1.10;99.90
15115;DHT22;7658;51.456;7.622;2022-12-18T15:18:05;0.90;99.90
15115;DHT22;7658;51.456;7.622;2022-12-18T15:20:55;0.80;99.90
15115;DHT22;7658;51.456;7.622;2022-12-18T15:23:47;0.80;99.90
15115;DHT22;7658;51.456;7.622;2022-12-18T15:26:15;0.80;99.90
15115;DHT22;7658;51.456;7.622;2022-12-18T15:28:57;0.80;99.90
15115;DHT22;7658;51.456;7.622;2022-12-18T15:31:33;0.80;99.90
15115;DHT22;7658;51.456;7.622;2022-12-18T15:36:33;0.60;99.90
15115;DHT22;7658;51.456;7.622;2022-12-18T15:39:02;0.60;99.90
15115;DHT22;7658;51.456;7.622;2022-12-18T15:41:31;0.50;99.90
15115;DHT22;7658;51.456;7.622;2022-12-18T15:43:58;0.50;99.90
15115;DHT22;7658;51.456;7.622;2022-12-18T15:46:25;0.50;99.90
15115;DHT22;7658;51.456;7.622;2022-12-18T15:48:56;0.50;99.90
15115;DHT22;7658;51.456;7.622;2022-12-18T15:51:23;0.60;99.90
15115;DHT22;7658;51.456;7.622;2022-12-18T15:53:52;0.60;99.90
15115;DHT22;7658;51.456;7.622;2022-12-18T15:56:19;0.50;99.90
15115;DHT22;7658;51.456;7.622;2022-12-18T15:59:15;0.70;99.90
15115;DHT22;7658;51.456;7.622;2022-12-18T16:01:44;0.70;99.90
15115;DHT22;7658;51.456;7.622;2022-12-18T16:04:15;0.60;99.90
15115;DHT22;7658;51.456;7.622;2022-12-18T16:06:42;0.60;99.90
15115;DHT22;7658;51.456;7.622;2022-12-18T16:09:08;0.60;99.90
15115;DHT22;7658;51.456;7.622;2022-12-18T16:11:36;0.50;99.90
15115;DHT22;7658;51.456;7.622;2022-12-18T16:14:19;0.60;99.90
15115;DHT22;7658;51.456;7.622;2022-12-18T16:16:51;0.60;99.90
15115;DHT22;7658;51.456;7.622;2022-12-18T16:19:18;0.60;99.90
15115;DHT22;7658;51.456;7.622;2022-12-18T16:21:45;0.60;99.90
15115;DHT22;7658;51.456;7.622;2022-12-18T16:24:29;0.80;99.90
15115;DHT22;7658;51.456;7.622;2022-12-18T16:26:57;0.80;99.90
15115;DHT22;7658;51.456;7.622;2022-12-18T16:29:25;0.90;99.90
15115;DHT22;7658;51.456;7.622;2022-12-18T16:31:57;0.90;99.90
15115;DHT22;7658;51.456;7.622;2022-12-18T16:36:54;1.10;99.90
15115;DHT22;7658;51.456;7.622;2022-12-18T16:39:21;1.10;99.90
15115;DHT22;7658;51.456;7.622;2022-12-18T16:41:47;1.10;99.90
15115;DHT22;7658;51.456;7.622;2022-12-18T16:44:13;1.10;99.90
15115;DHT22;7658;51.456;7.622;2022-12-18T16:46:39;1.10;99.90
15115;DHT22;7658;51.456;7.622;2022-12-18T16:49:08;1.20;99.90
15115;DHT22;7658;51.456;7.622;2022-12-18T16:51:35;1.10;99.90
15115;DHT22;7658;51.456;7.622;2022-12-18T16:54:01;1.10;99.90
15115;DHT22;7658;51.456;7.622;2022-12-18T16:56:27;1.10;99.90
15115;DHT22;7658;51.456;7.622;2022-12-18T16:58:54;1.10;99.90
15115;DHT22;7658;51.456;7.622;2022-12-18T17:01:21;1.00;99.90
15115;DHT22;7658;51.456;7.622;2022-12-18T17:03:54;1.00;99.90
15115;DHT22;7658;51.456;7.622;2022-12-18T17:06:21;0.90;99.90
15115;DHT22;7658;51.456;7.622;2022-12-18T17:08:54;1.10;99.90
15115;DHT22;7658;51.456;7.622;2022-12-18T17:11:31;1.10;99.90
15115;DHT22;7658;51.456;7.622;2022-12-18T17:14:04;1.00;99.90
15115;DHT22;7658;51.456;7.622;2022-12-18T17:16:30;1.00;99.90
15115;DHT22;7658;51.456;7.622;2022-12-18T17:18:56;1.00;99.90
15115;DHT22;7658;51.456;7.622;2022-12-18T17:21:21;0.90;99.90
15115;DHT22;7658;51.456;7.622;2022-12-18T17:23:47;0.90;99.90
15115;DHT22;7658;51.456;7.622;2022-12-18T17:26:13;1.00;99.90
15115;DHT22;7658;51.456;7.622;2022-12-18T17:28:40;0.90;99.90
15115;DHT22;7658;51.456;7.622;2022-12-18T17:31:11;1.00;99.90
15115;DHT22;7658;51.456;7.622;2022-12-18T17:33:37;1.00;99.90
15115;DHT22;7658;51.456;7.622;2022-12-18T17:36:03;1.00;99.90
15115;DHT22;7658;51.456;7.622;2022-12-18T17:38:29;1.00;99.90
15115;DHT22;7658;51.456;7.622;2022-12-18T17:41:00;0.90;99.90
15115;DHT22;7658;51.456;7.622;2022-12-18T17:43:26;0.90;99.90
15115;DHT22;7658;51.456;7.622;2022-12-18T17:45:52;0.80;99.90
15115;DHT22;7658;51.456;7.622;2022-12-18T17:48:18;0.80;99.90
15115;DHT22;7658;51.456;7.622;2022-12-18T17:50:44;0.80;99.90
15115;DHT22;7658;51.456;7.622;2022-12-18T17:53:10;0.80;99.90
15115;DHT22;7658;51.456;7.622;2022-12-18T17:55:36;0.80;99.90
15115;DHT22;7658;51.456;7.622;2022-12-18T17:58:02;0.90;99.90
15115;DHT22;7658;51.456;7.622;2022-12-18T18:00:28;0.90;99.90
15115;DHT22;7658;51.456;7.622;2022-12-18T18:02:54;0.90;99.90
15115;DHT22;7658;51.456;7.622;2022-12-18T18:05:20;1.00;99.90